Time;durP1;ratioP1;P1;durP2;ratioP2;P2;SDS_P1;SDS_P2;PMS_P1;PMS_P2;Temp;Humidity;BMP_temperature;BMP_pressure;BME280_temperature;BME280_humidity;BME280_pressure;Samples;Min_cycle;Max_cycle;Signal;HPM_P1;HPM_P2
2023/08/31 17:18:08;;;;;;;;;;;26.40;76.30;;;;;;5119356;27;19916;-92
2023/08/31 17:20:34;;;;;;;;;;;26.20;77.30;;;;;;5112001;28;19912;-93
2023/08/31 17:23:02;;;;;;;;;;;26.30;78.20;;;;;;5110879;28;19955;-93
2023/08/31 17:25:28;;;;;;;;;;;26.30;78.50;;;;;;5110812;28;19919;-94
2023/08/31 17:27:53;;;;;;;;;;;26.40;78.90;;;;;;5144998;27;19908;-94
2023/08/31 17:30:19;;;;;;;;;;;26.50;79.20;;;;;;5119949;28;19916;-92
2023/08/31 17:32:45;;;;;;;;;;;26.50;79.40;;;;;;5165753;27;19908;-92
2023/08/31 17:35:10;;;;;;;;;;;26.60;79.60;;;;;;5110491;28;19916;-93
2023/08/31 17:37:36;;;;;;;;;;;26.60;79.70;;;;;;5110368;28;19908;-93
2023/08/31 17:40:06;;;;;;;;;;;26.60;79.90;;;;;;5110666;28;19919;-92
2023/08/31 17:42:32;;;;;;;;;;;26.60;80.00;;;;;;5127098;28;20380;-92
2023/08/31 17:44:59;;;;;;;;;;;26.60;80.10;;;;;;5110218;28;20015;-93
2023/08/31 17:47:24;;;;;;;;;;;26.60;80.40;;;;;;5144674;27;20002;-92
2023/08/31 17:49:50;;;;;;;;;;;26.60;80.50;;;;;;5111689;28;20013;-93
2023/08/31 17:52:15;;;;;;;;;;;26.60;80.60;;;;;;5144734;27;20423;-93
2023/08/31 17:54:41;;;;;;;;;;;26.60;80.80;;;;;;5144674;27;20356;-92
2023/08/31 17:57:06;;;;;;;;;;;26.60;80.90;;;;;;5144566;27;19955;-94
2023/08/31 17:59:32;;;;;;;;;;;26.50;81.00;;;;;;5144470;27;19915;-93
2023/08/31 18:01:59;;;;;;;;;;;26.50;81.20;;;;;;5144216;27;20360;-93
2023/08/31 18:04:25;;;;;;;;;;;26.50;81.40;;;;;;5111222;28;20273;-94
2023/08/31 18:06:54;;;;;;;;;;;26.50;81.50;;;;;;5110065;28;19915;-94
2023/08/31 18:09:19;;;;;;;;;;;26.50;81.60;;;;;;5144413;27;19960;-93
2023/08/31 18:11:45;;;;;;;;;;;26.40;81.70;;;;;;5109957;28;20010;-94
2023/08/31 18:14:11;;;;;;;;;;;26.30;81.80;;;;;;5127305;28;19912;-92
2023/08/31 18:16:36;;;;;;;;;;;26.30;82.00;;;;;;5142911;27;19977;-94
2023/08/31 18:19:05;;;;;;;;;;;26.20;82.00;;;;;;5109429;28;20372;-93
2023/08/31 18:21:30;;;;;;;;;;;26.20;82.20;;;;;;5109644;28;19908;-92
2023/08/31 18:23:56;;;;;;;;;;;26.10;82.30;;;;;;5109683;28;19923;-93
2023/08/31 18:26:22;;;;;;;;;;;26.00;82.50;;;;;;5110968;27;19916;-92
2023/08/31 18:28:48;;;;;;;;;;;26.00;82.70;;;;;;5117077;28;19913;-92
2023/08/31 18:31:13;;;;;;;;;;;25.90;82.80;;;;;;5096046;28;19962;-93
2023/08/31 18:33:39;;;;;;;;;;;25.90;83.00;;;;;;5095478;28;19920;-93
2023/08/31 18:36:04;;;;;;;;;;;25.80;83.10;;;;;;5095567;28;19958;-92
2023/08/31 18:38:30;;;;;;;;;;;25.80;83.20;;;;;;5097046;28;20261;-93
2023/08/31 18:40:56;;;;;;;;;;;25.70;83.40;;;;;;5095506;28;19912;-93
2023/08/31 18:43:22;;;;;;;;;;;25.60;83.50;;;;;;5095388;28;19995;-93
2023/08/31 18:45:48;;;;;;;;;;;25.60;83.50;;;;;;5095715;28;19908;-93
2023/08/31 18:48:14;;;;;;;;;;;25.60;83.80;;;;;;5094478;28;19930;-92
2023/08/31 18:50:40;;;;;;;;;;;25.50;84.00;;;;;;5095613;28;19948;-94
2023/08/31 18:53:09;;;;;;;;;;;25.40;84.10;;;;;;5122951;27;19942;-93
2023/08/31 18:55:36;;;;;;;;;;;25.30;84.30;;;;;;5085253;28;19916;-92
2023/08/31 18:58:02;;;;;;;;;;;25.30;84.60;;;;;;5130025;27;19908;-93
2023/08/31 19:00:28;;;;;;;;;;;25.30;84.80;;;;;;5126127;27;19909;-94
2023/08/31 19:02:56;;;;;;;;;;;25.20;85.00;;;;;;5108966;28;19916;-93
2023/08/31 19:05:23;;;;;;;;;;;25.20;85.20;;;;;;5078149;28;20489;-91
2023/08/31 19:07:49;;;;;;;;;;;25.10;85.30;;;;;;5096685;28;20010;-92
2023/08/31 19:10:15;;;;;;;;;;;25.00;85.40;;;;;;5098488;28;19908;-95
2023/08/31 19:12:42;;;;;;;;;;;25.00;85.60;;;;;;5097729;28;19919;-96
2023/08/31 19:15:08;;;;;;;;;;;24.90;85.70;;;;;;5129964;27;19908;-92
2023/08/31 19:17:34;;;;;;;;;;;24.80;85.80;;;;;;5125783;27;20458;-92
2023/08/31 19:20:00;;;;;;;;;;;24.70;85.90;;;;;;5096191;28;19969;-92
2023/08/31 19:22:26;;;;;;;;;;;24.70;86.10;;;;;;5095937;28;20326;-93
2023/08/31 19:24:52;;;;;;;;;;;24.70;86.20;;;;;;5095484;28;19954;-92
2023/08/31 19:27:18;;;;;;;;;;;24.60;86.30;;;;;;5095662;28;20342;-92
2023/08/31 19:29:44;;;;;;;;;;;24.60;86.50;;;;;;5112184;28;19969;-92
2023/08/31 19:32:09;;;;;;;;;;;24.60;86.50;;;;;;5095171;28;19923;-93
2023/08/31 19:34:36;;;;;;;;;;;24.50;86.60;;;;;;5094849;28;19961;-94
2023/08/31 19:37:01;;;;;;;;;;;24.50;86.70;;;;;;5096111;28;19947;-93
2023/08/31 19:39:27;;;;;;;;;;;24.50;86.90;;;;;;5095191;28;19916;-92
2023/08/31 19:41:53;;;;;;;;;;;24.40;87.00;;;;;;5128593;27;19912;-93
2023/08/31 19:44:22;;;;;;;;;;;24.40;87.10;;;;;;5096384;28;19948;-94
2023/08/31 19:46:48;;;;;;;;;;;24.30;87.20;;;;;;5128852;27;19916;-93
2023/08/31 19:49:14;;;;;;;;;;;24.30;87.40;;;;;;5128686;27;19908;-93
2023/08/31 19:51:40;;;;;;;;;;;24.30;87.50;;;;;;5128809;27;19923;-93
2023/08/31 19:54:08;;;;;;;;;;;24.20;87.60;;;;;;5094542;28;20325;-93
2023/08/31 19:56:34;;;;;;;;;;;24.30;87.60;;;;;;5128616;27;19912;-92
2023/08/31 19:59:01;;;;;;;;;;;24.20;87.80;;;;;;5094474;28;19912;-93
2023/08/31 20:01:27;;;;;;;;;;;24.10;88.00;;;;;;5122181;27;19920;-96
2023/08/31 20:03:53;;;;;;;;;;;24.10;88.10;;;;;;5094311;28;20360;-94
2023/08/31 20:06:18;;;;;;;;;;;24.10;88.20;;;;;;5096604;28;19920;-93
2023/08/31 20:08:44;;;;;;;;;;;24.00;88.40;;;;;;5093665;28;20380;-94
2023/08/31 20:11:09;;;;;;;;;;;24.00;88.50;;;;;;5094274;28;19939;-93
